sensor_id;sensor_type;location;lat;lon;timestamp;pressure;altitude;pressure_sealevel;temperature
74321;BMP280;62738;45.772;4.804;2023-03-23T00:01:07;99328.31;;;17.37
74321;BMP280;62738;45.772;4.804;2023-03-23T00:03:36;99331.00;;;17.62
74321;BMP280;62738;45.772;4.804;2023-03-23T00:06:02;99329.41;;;17.73
74321;BMP280;62738;45.772;4.804;2023-03-23T00:08:38;99334.94;;;17.57
74321;BMP280;62738;45.772;4.804;2023-03-23T00:11:15;99334.41;;;17.47
74321;BMP280;62738;45.772;4.804;2023-03-23T00:13:44;99334.13;;;17.54
74321;BMP280;62738;45.772;4.804;2023-03-23T00:16:11;99338.06;;;17.63
74321;BMP280;62738;45.772;4.804;2023-03-23T00:18:47;99339.00;;;17.54
74321;BMP280;62738;45.772;4.804;2023-03-23T00:21:14;99342.22;;;17.62
74321;BMP280;62738;45.772;4.804;2023-03-23T00:23:40;99331.34;;;17.70
74321;BMP280;62738;45.772;4.804;2023-03-23T00:26:06;99337.09;;;17.72
74321;BMP280;62738;45.772;4.804;2023-03-23T00:28:32;99336.44;;;17.87
74321;BMP280;62738;45.772;4.804;2023-03-23T00:33:26;99335.38;;;17.65
74321;BMP280;62738;45.772;4.804;2023-03-23T00:35:52;99340.28;;;17.80
74321;BMP280;62738;45.772;4.804;2023-03-23T00:38:23;99340.88;;;17.63
74321;BMP280;62738;45.772;4.804;2023-03-23T00:40:49;99342.41;;;17.66
74321;BMP280;62738;45.772;4.804;2023-03-23T00:43:19;99337.31;;;17.63
74321;BMP280;62738;45.772;4.804;2023-03-23T00:45:45;99348.34;;;17.45
74321;BMP280;62738;45.772;4.804;2023-03-23T00:48:19;99344.94;;;17.33
74321;BMP280;62738;45.772;4.804;2023-03-23T00:50:45;99353.66;;;17.39
74321;BMP280;62738;45.772;4.804;2023-03-23T00:53:11;99349.19;;;17.34
74321;BMP280;62738;45.772;4.804;2023-03-23T00:55:36;99359.88;;;17.51
74321;BMP280;62738;45.772;4.804;2023-03-23T00:58:02;99345.66;;;17.61
74321;BMP280;62738;45.772;4.804;2023-03-23T01:00:27;99343.38;;;17.43
74321;BMP280;62738;45.772;4.804;2023-03-23T01:02:53;99347.22;;;17.64
74321;BMP280;62738;45.772;4.804;2023-03-23T01:05:19;99346.03;;;17.41
74321;BMP280;62738;45.772;4.804;2023-03-23T01:07:46;99351.06;;;17.29
74321;BMP280;62738;45.772;4.804;2023-03-23T01:10:14;99343.88;;;17.67
74321;BMP280;62738;45.772;4.804;2023-03-23T01:12:45;99342.13;;;17.60
74321;BMP280;62738;45.772;4.804;2023-03-23T01:15:18;99352.88;;;17.79
74321;BMP280;62738;45.772;4.804;2023-03-23T01:17:44;99352.09;;;17.22
74321;BMP280;62738;45.772;4.804;2023-03-23T01:20:12;99352.69;;;16.93
74321;BMP280;62738;45.772;4.804;2023-03-23T01:22:39;99352.59;;;17.46
74321;BMP280;62738;45.772;4.804;2023-03-23T01:25:05;99347.22;;;17.36
74321;BMP280;62738;45.772;4.804;2023-03-23T01:27:31;99343.47;;;17.32
74321;BMP280;62738;45.772;4.804;2023-03-23T01:29:57;99338.47;;;17.44
74321;BMP280;62738;45.772;4.804;2023-03-23T01:32:23;99329.22;;;17.41
74321;BMP280;62738;45.772;4.804;2023-03-23T01:34:48;99338.38;;;17.42
74321;BMP280;62738;45.772;4.804;2023-03-23T01:37:14;99341.06;;;17.12
74321;BMP280;62738;45.772;4.804;2023-03-23T01:39:41;99342.59;;;17.70
74321;BMP280;62738;45.772;4.804;2023-03-23T01:42:08;99336.97;;;17.70
74321;BMP280;62738;45.772;4.804;2023-03-23T01:47:01;99349.25;;;18.06
74321;BMP280;62738;45.772;4.804;2023-03-23T01:49:29;99346.88;;;17.57
74321;BMP280;62738;45.772;4.804;2023-03-23T01:52:03;99342.81;;;17.74
74321;BMP280;62738;45.772;4.804;2023-03-23T01:54:30;99343.50;;;17.88
74321;BMP280;62738;45.772;4.804;2023-03-23T01:56:59;99341.34;;;17.73
74321;BMP280;62738;45.772;4.804;2023-03-23T01:59:29;99342.88;;;17.76
74321;BMP280;62738;45.772;4.804;2023-03-23T02:01:56;99324.34;;;17.42
74321;BMP280;62738;45.772;4.804;2023-03-23T02:04:23;99328.44;;;17.39
74321;BMP280;62738;45.772;4.804;2023-03-23T02:06:50;99324.69;;;17.34
74321;BMP280;62738;45.772;4.804;2023-03-23T02:09:17;99320.44;;;17.33
74321;BMP280;62738;45.772;4.804;2023-03-23T02:11:43;99315.94;;;17.55
74321;BMP280;62738;45.772;4.804;2023-03-23T02:14:09;99313.44;;;17.62
74321;BMP280;62738;45.772;4.804;2023-03-23T02:16:44;99314.47;;;17.68
74321;BMP280;62738;45.772;4.804;2023-03-23T02:19:31;99315.84;;;17.40
74321;BMP280;62738;45.772;4.804;2023-03-23T02:24:57;99307.94;;;16.82
74321;BMP280;62738;45.772;4.804;2023-03-23T02:27:45;99310.03;;;17.49
74321;BMP280;62738;45.772;4.804;2023-03-23T02:30:49;99304.00;;;17.55
74321;BMP280;62738;45.772;4.804;2023-03-23T02:36:23;99306.81;;;17.28
74321;BMP280;62738;45.772;4.804;2023-03-23T02:39:00;99309.41;;;17.80
74321;BMP280;62738;45.772;4.804;2023-03-23T02:41:31;99311.72;;;17.27
74321;BMP280;62738;45.772;4.804;2023-03-23T02:43:57;99314.41;;;17.39
74321;BMP280;62738;45.772;4.804;2023-03-23T02:46:23;99303.41;;;17.16
74321;BMP280;62738;45.772;4.804;2023-03-23T02:48:53;99297.97;;;17.47
74321;BMP280;62738;45.772;4.804;2023-03-23T02:51:22;99297.16;;;17.87
74321;BMP280;62738;45.772;4.804;2023-03-23T02:53:51;99297.47;;;17.93
74321;BMP280;62738;45.772;4.804;2023-03-23T02:56:19;99299.09;;;17.69
74321;BMP280;62738;45.772;4.804;2023-03-23T02:58:46;99304.03;;;17.28
74321;BMP280;62738;45.772;4.804;2023-03-23T03:04:07;99284.94;;;17.10
74321;BMP280;62738;45.772;4.804;2023-03-23T03:09:26;99272.28;;;16.96
74321;BMP280;62738;45.772;4.804;2023-03-23T03:12:00;99269.28;;;17.05
74321;BMP280;62738;45.772;4.804;2023-03-23T03:14:43;99271.50;;;17.50
74321;BMP280;62738;45.772;4.804;2023-03-23T03:17:19;99268.03;;;17.08
74321;BMP280;62738;45.772;4.804;2023-03-23T03:19:48;99273.41;;;17.18
74321;BMP280;62738;45.772;4.804;2023-03-23T03:22:16;99276.41;;;17.36
74321;BMP280;62738;45.772;4.804;2023-03-23T03:24:43;99267.78;;;17.32
74321;BMP280;62738;45.772;4.804;2023-03-23T03:27:14;99268.34;;;17.57
74321;BMP280;62738;45.772;4.804;2023-03-23T03:29:43;99264.16;;;17.29
74321;BMP280;62738;45.772;4.804;2023-03-23T03:32:15;99268.31;;;17.14
74321;BMP280;62738;45.772;4.804;2023-03-23T03:34:40;99273.38;;;16.91
74321;BMP280;62738;45.772;4.804;2023-03-23T03:37:06;99268.72;;;16.82
74321;BMP280;62738;45.772;4.804;2023-03-23T03:39:35;99275.47;;;17.31
74321;BMP280;62738;45.772;4.804;2023-03-23T03:42:03;99277.00;;;17.48
74321;BMP280;62738;45.772;4.804;2023-03-23T03:44:28;99278.38;;;17.33
74321;BMP280;62738;45.772;4.804;2023-03-23T03:46:54;99272.03;;;17.76
74321;BMP280;62738;45.772;4.804;2023-03-23T03:49:20;99269.44;;;17.80
74321;BMP280;62738;45.772;4.804;2023-03-23T03:51:45;99264.03;;;17.70
74321;BMP280;62738;45.772;4.804;2023-03-23T03:54:11;99274.06;;;17.46
74321;BMP280;62738;45.772;4.804;2023-03-23T03:56:37;99268.44;;;17.30
74321;BMP280;62738;45.772;4.804;2023-03-23T03:59:06;99270.44;;;17.43
74321;BMP280;62738;45.772;4.804;2023-03-23T04:01:33;99272.56;;;17.29
74321;BMP280;62738;45.772;4.804;2023-03-23T04:03:59;99266.84;;;17.70
74321;BMP280;62738;45.772;4.804;2023-03-23T04:06:25;99277.09;;;17.50
74321;BMP280;62738;45.772;4.804;2023-03-23T04:08:57;99272.72;;;17.47
74321;BMP280;62738;45.772;4.804;2023-03-23T04:11:24;99271.78;;;17.85
74321;BMP280;62738;45.772;4.804;2023-03-23T04:13:50;99273.25;;;17.86
74321;BMP280;62738;45.772;4.804;2023-03-23T04:16:16;99279.50;;;17.71
74321;BMP280;62738;45.772;4.804;2023-03-23T04:18:42;99280.44;;;17.76
74321;BMP280;62738;45.772;4.804;2023-03-23T04:21:10;99280.31;;;17.58
74321;BMP280;62738;45.772;4.804;2023-03-23T04:23:37;99283.66;;;17.27
74321;BMP280;62738;45.772;4.804;2023-03-23T04:26:04;99278.53;;;17.51
74321;BMP280;62738;45.772;4.804;2023-03-23T04:28:29;99276.16;;;17.59
74321;BMP280;62738;45.772;4.804;2023-03-23T04:30:59;99277.63;;;17.60
74321;BMP280;62738;45.772;4.804;2023-03-23T04:33:27;99280.84;;;17.70
74321;BMP280;62738;45.772;4.804;2023-03-23T04:35:55;99278.44;;;17.49
74321;BMP280;62738;45.772;4.804;2023-03-23T04:38:23;99277.44;;;18.01
74321;BMP280;62738;45.772;4.804;2023-03-23T04:40:52;99274.09;;;17.75
74321;BMP280;62738;45.772;4.804;2023-03-23T04:43:18;99272.13;;;17.78
74321;BMP280;62738;45.772;4.804;2023-03-23T04:45:56;99264.75;;;17.84
74321;BMP280;62738;45.772;4.804;2023-03-23T04:48:27;99257.25;;;17.46
74321;BMP280;62738;45.772;4.804;2023-03-23T04:50:54;99265.81;;;17.34
74321;BMP280;62738;45.772;4.804;2023-03-23T04:53:20;99256.97;;;17.26
74321;BMP280;62738;45.772;4.804;2023-03-23T04:55:46;99254.44;;;17.46
74321;BMP280;62738;45.772;4.804;2023-03-23T04:58:14;99275.66;;;17.22
74321;BMP280;62738;45.772;4.804;2023-03-23T05:00:41;99259.91;;;17.28
74321;BMP280;62738;45.772;4.804;2023-03-23T05:03:09;99254.53;;;17.62
74321;BMP280;62738;45.772;4.804;2023-03-23T05:05:35;99248.59;;;17.98
74321;BMP280;62738;45.772;4.804;2023-03-23T05:08:01;99261.06;;;17.66
74321;BMP280;62738;45.772;4.804;2023-03-23T05:10:27;99261.13;;;17.39
74321;BMP280;62738;45.772;4.804;2023-03-23T05:12:54;99262.31;;;17.20
74321;BMP280;62738;45.772;4.804;2023-03-23T05:15:19;99261.94;;;17.55
74321;BMP280;62738;45.772;4.804;2023-03-23T05:17:45;99266.63;;;17.37
74321;BMP280;62738;45.772;4.804;2023-03-23T05:20:13;99264.25;;;17.18
74321;BMP280;62738;45.772;4.804;2023-03-23T05:22:40;99261.66;;;17.22
74321;BMP280;62738;45.772;4.804;2023-03-23T05:25:07;99258.88;;;17.35
74321;BMP280;62738;45.772;4.804;2023-03-23T05:27:37;99250.28;;;17.47
74321;BMP280;62738;45.772;4.804;2023-03-23T05:30:04;99255.59;;;17.41
74321;BMP280;62738;45.772;4.804;2023-03-23T05:32:30;99254.25;;;17.42
74321;BMP280;62738;45.772;4.804;2023-03-23T05:34:57;99253.03;;;17.18
74321;BMP280;62738;45.772;4.804;2023-03-23T05:37:24;99253.25;;;17.35
74321;BMP280;62738;45.772;4.804;2023-03-23T05:39:50;99254.91;;;17.27
74321;BMP280;62738;45.772;4.804;2023-03-23T05:42:22;99258.28;;;17.52
74321;BMP280;62738;45.772;4.804;2023-03-23T05:44:48;99265.25;;;17.65
74321;BMP280;62738;45.772;4.804;2023-03-23T05:47:14;99261.25;;;17.27
74321;BMP280;62738;45.772;4.804;2023-03-23T05:49:40;99259.97;;;17.44
74321;BMP280;62738;45.772;4.804;2023-03-23T05:52:05;99262.56;;;17.40
74321;BMP280;62738;45.772;4.804;2023-03-23T05:54:31;99274.06;;;17.46
74321;BMP280;62738;45.772;4.804;2023-03-23T05:56:56;99266.47;;;17.62
74321;BMP280;62738;45.772;4.804;2023-03-23T05:59:22;99271.78;;;17.42
74321;BMP280;62738;45.772;4.804;2023-03-23T06:01:47;99277.66;;;17.33
74321;BMP280;62738;45.772;4.804;2023-03-23T06:04:13;99282.53;;;17.32
74321;BMP280;62738;45.772;4.804;2023-03-23T06:06:38;99291.84;;;17.50
74321;BMP280;62738;45.772;4.804;2023-03-23T06:09:04;99290.78;;;17.57
74321;BMP280;62738;45.772;4.804;2023-03-23T06:11:30;99286.56;;;17.43
74321;BMP280;62738;45.772;4.804;2023-03-23T06:13:56;99288.13;;;17.32
74321;BMP280;62738;45.772;4.804;2023-03-23T06:16:21;99291.19;;;17.95
74321;BMP280;62738;45.772;4.804;2023-03-23T06:18:47;99296.28;;;17.69
74321;BMP280;62738;45.772;4.804;2023-03-23T06:21:13;99299.81;;;17.56
74321;BMP280;62738;45.772;4.804;2023-03-23T06:23:39;99306.91;;;17.43
74321;BMP280;62738;45.772;4.804;2023-03-23T06:26:07;99310.47;;;16.89
74321;BMP280;62738;45.772;4.804;2023-03-23T06:28:33;99308.47;;;16.78
74321;BMP280;62738;45.772;4.804;2023-03-23T06:31:04;99308.84;;;16.59
74321;BMP280;62738;45.772;4.804;2023-03-23T06:33:32;99314.25;;;16.55
74321;BMP280;62738;45.772;4.804;2023-03-23T06:35:59;99327.81;;;16.60
74321;BMP280;62738;45.772;4.804;2023-03-23T06:38:25;99317.81;;;16.69
74321;BMP280;62738;45.772;4.804;2023-03-23T06:40:52;99318.94;;;16.91
74321;BMP280;62738;45.772;4.804;2023-03-23T06:43:18;99308.41;;;17.31
74321;BMP280;62738;45.772;4.804;2023-03-23T06:45:44;99300.72;;;17.04
74321;BMP280;62738;45.772;4.804;2023-03-23T06:48:09;99305.47;;;17.01
74321;BMP280;62738;45.772;4.804;2023-03-23T06:50:35;99305.28;;;16.97
74321;BMP280;62738;45.772;4.804;2023-03-23T06:53:01;99311.19;;;17.03
74321;BMP280;62738;45.772;4.804;2023-03-23T06:55:26;99309.22;;;17.33
74321;BMP280;62738;45.772;4.804;2023-03-23T06:57:52;99308.16;;;17.27
74321;BMP280;62738;45.772;4.804;2023-03-23T07:00:17;99322.09;;;17.25
74321;BMP280;62738;45.772;4.804;2023-03-23T07:02:43;99331.31;;;17.27
74321;BMP280;62738;45.772;4.804;2023-03-23T07:05:10;99318.84;;;17.44
74321;BMP280;62738;45.772;4.804;2023-03-23T07:07:39;99322.38;;;17.58
74321;BMP280;62738;45.772;4.804;2023-03-23T07:10:07;99321.53;;;17.69
74321;BMP280;62738;45.772;4.804;2023-03-23T07:12:34;99325.44;;;17.78
74321;BMP280;62738;45.772;4.804;2023-03-23T07:15:02;99331.22;;;17.95
74321;BMP280;62738;45.772;4.804;2023-03-23T07:17:28;99328.31;;;17.93
74321;BMP280;62738;45.772;4.804;2023-03-23T07:19:53;99330.53;;;18.11
74321;BMP280;62738;45.772;4.804;2023-03-23T07:22:19;99332.50;;;17.79
74321;BMP280;62738;45.772;4.804;2023-03-23T07:24:44;99319.72;;;17.89
74321;BMP280;62738;45.772;4.804;2023-03-23T07:27:10;99309.84;;;18.04
74321;BMP280;62738;45.772;4.804;2023-03-23T07:29:36;99306.72;;;18.12
74321;BMP280;62738;45.772;4.804;2023-03-23T07:32:05;99315.88;;;17.83
74321;BMP280;62738;45.772;4.804;2023-03-23T07:34:31;99307.88;;;17.77
74321;BMP280;62738;45.772;4.804;2023-03-23T07:36:57;99314.50;;;17.54
74321;BMP280;62738;45.772;4.804;2023-03-23T07:39:23;99323.53;;;17.53
74321;BMP280;62738;45.772;4.804;2023-03-23T07:41:50;99338.69;;;17.48
74321;BMP280;62738;45.772;4.804;2023-03-23T07:44:16;99343.06;;;17.24
74321;BMP280;62738;45.772;4.804;2023-03-23T07:46:42;99327.59;;;17.50
74321;BMP280;62738;45.772;4.804;2023-03-23T07:49:08;99318.91;;;17.73
74321;BMP280;62738;45.772;4.804;2023-03-23T07:51:35;99327.50;;;17.77
74321;BMP280;62738;45.772;4.804;2023-03-23T07:54:04;99324.13;;;17.51
74321;BMP280;62738;45.772;4.804;2023-03-23T07:56:30;99309.63;;;18.14
74321;BMP280;62738;45.772;4.804;2023-03-23T07:58:56;99329.44;;;17.59
74321;BMP280;62738;45.772;4.804;2023-03-23T08:01:22;99322.53;;;17.89
74321;BMP280;62738;45.772;4.804;2023-03-23T08:03:49;99337.22;;;18.03
74321;BMP280;62738;45.772;4.804;2023-03-23T08:06:15;99332.31;;;18.04
74321;BMP280;62738;45.772;4.804;2023-03-23T08:08:41;99339.59;;;17.80
74321;BMP280;62738;45.772;4.804;2023-03-23T08:11:07;99354.50;;;17.98
74321;BMP280;62738;45.772;4.804;2023-03-23T08:13:32;99357.25;;;18.12
74321;BMP280;62738;45.772;4.804;2023-03-23T08:16:01;99356.31;;;18.36
74321;BMP280;62738;45.772;4.804;2023-03-23T08:18:30;99360.03;;;18.25
74321;BMP280;62738;45.772;4.804;2023-03-23T08:20:57;99353.69;;;18.25
74321;BMP280;62738;45.772;4.804;2023-03-23T08:23:24;99360.63;;;17.65
74321;BMP280;62738;45.772;4.804;2023-03-23T08:25:50;99353.09;;;16.88
74321;BMP280;62738;45.772;4.804;2023-03-23T08:28:16;99351.88;;;17.32
74321;BMP280;62738;45.772;4.804;2023-03-23T08:30:42;99359.63;;;17.74
74321;BMP280;62738;45.772;4.804;2023-03-23T08:33:07;99363.25;;;18.20
74321;BMP280;62738;45.772;4.804;2023-03-23T08:35:36;99361.56;;;18.28
74321;BMP280;62738;45.772;4.804;2023-03-23T08:38:02;99370.50;;;17.95
74321;BMP280;62738;45.772;4.804;2023-03-23T08:40:28;99370.75;;;18.15
74321;BMP280;62738;45.772;4.804;2023-03-23T08:42:54;99367.16;;;18.58
74321;BMP280;62738;45.772;4.804;2023-03-23T08:45:23;99377.34;;;18.51
74321;BMP280;62738;45.772;4.804;2023-03-23T08:47:49;99388.28;;;18.90
74321;BMP280;62738;45.772;4.804;2023-03-23T08:50:23;99390.44;;;18.76
74321;BMP280;62738;45.772;4.804;2023-03-23T08:52:50;99390.69;;;18.66
74321;BMP280;62738;45.772;4.804;2023-03-23T08:55:16;99397.63;;;18.94
74321;BMP280;62738;45.772;4.804;2023-03-23T08:57:43;99403.97;;;18.95
74321;BMP280;62738;45.772;4.804;2023-03-23T09:00:12;99410.13;;;18.91
74321;BMP280;62738;45.772;4.804;2023-03-23T09:02:41;99417.22;;;19.08
74321;BMP280;62738;45.772;4.804;2023-03-23T09:05:08;99410.50;;;19.15
74321;BMP280;62738;45.772;4.804;2023-03-23T09:07:35;99399.34;;;19.17
74321;BMP280;62738;45.772;4.804;2023-03-23T09:10:01;99402.44;;;19.57
74321;BMP280;62738;45.772;4.804;2023-03-23T09:12:27;99412.47;;;19.44
74321;BMP280;62738;45.772;4.804;2023-03-23T09:14:53;99404.19;;;19.48
74321;BMP280;62738;45.772;4.804;2023-03-23T09:17:18;99403.16;;;19.57
74321;BMP280;62738;45.772;4.804;2023-03-23T09:19:44;99394.41;;;19.49
74321;BMP280;62738;45.772;4.804;2023-03-23T09:22:10;99398.69;;;19.85
74321;BMP280;62738;45.772;4.804;2023-03-23T09:24:35;99408.06;;;20.08
74321;BMP280;62738;45.772;4.804;2023-03-23T09:27:01;99398.72;;;20.21
74321;BMP280;62738;45.772;4.804;2023-03-23T09:29:26;99408.59;;;19.86
74321;BMP280;62738;45.772;4.804;2023-03-23T09:31:53;99405.88;;;19.55
74321;BMP280;62738;45.772;4.804;2023-03-23T09:34:19;99394.97;;;19.30
74321;BMP280;62738;45.772;4.804;2023-03-23T09:36:45;99401.75;;;19.74
74321;BMP280;62738;45.772;4.804;2023-03-23T09:39:11;99407.25;;;19.87
74321;BMP280;62738;45.772;4.804;2023-03-23T09:44:30;99415.84;;;19.91
74321;BMP280;62738;45.772;4.804;2023-03-23T09:47:18;99413.50;;;19.86
74321;BMP280;62738;45.772;4.804;2023-03-23T09:49:52;99423.50;;;19.56
74321;BMP280;62738;45.772;4.804;2023-03-23T09:52:19;99423.13;;;19.63
74321;BMP280;62738;45.772;4.804;2023-03-23T09:54:53;99423.13;;;19.63
74321;BMP280;62738;45.772;4.804;2023-03-23T09:57:26;99427.09;;;19.74
74321;BMP280;62738;45.772;4.804;2023-03-23T10:00:03;99434.09;;;19.73
74321;BMP280;62738;45.772;4.804;2023-03-23T10:05:31;99431.81;;;19.69
74321;BMP280;62738;45.772;4.804;2023-03-23T10:08:00;99429.03;;;19.54
74321;BMP280;62738;45.772;4.804;2023-03-23T10:10:40;99427.25;;;19.44
74321;BMP280;62738;45.772;4.804;2023-03-23T10:16:04;99428.16;;;19.49
74321;BMP280;62738;45.772;4.804;2023-03-23T10:18:46;99434.78;;;19.40
74321;BMP280;62738;45.772;4.804;2023-03-23T10:21:18;99441.13;;;19.25
74321;BMP280;62738;45.772;4.804;2023-03-23T10:24:02;99453.13;;;19.41
74321;BMP280;62738;45.772;4.804;2023-03-23T10:29:03;99452.56;;;19.29
74321;BMP280;62738;45.772;4.804;2023-03-23T10:31:37;99453.03;;;19.39
74321;BMP280;62738;45.772;4.804;2023-03-23T10:34:20;99462.66;;;19.50
74321;BMP280;62738;45.772;4.804;2023-03-23T10:36:56;99459.19;;;19.51
74321;BMP280;62738;45.772;4.804;2023-03-23T10:39:27;99464.63;;;19.63
74321;BMP280;62738;45.772;4.804;2023-03-23T10:41:54;99462.16;;;19.71
74321;BMP280;62738;45.772;4.804;2023-03-23T10:44:23;99462.59;;;19.98
74321;BMP280;62738;45.772;4.804;2023-03-23T10:46:57;99471.50;;;19.75
74321;BMP280;62738;45.772;4.804;2023-03-23T10:49:26;99466.69;;;19.78
74321;BMP280;62738;45.772;4.804;2023-03-23T10:51:59;99459.41;;;19.73
74321;BMP280;62738;45.772;4.804;2023-03-23T10:54:33;99451.97;;;19.64
74321;BMP280;62738;45.772;4.804;2023-03-23T10:57:00;99457.09;;;19.67
74321;BMP280;62738;45.772;4.804;2023-03-23T10:59:39;99463.72;;;19.58
74321;BMP280;62738;45.772;4.804;2023-03-23T11:02:19;99461.03;;;19.44
74321;BMP280;62738;45.772;4.804;2023-03-23T11:04:53;99473.00;;;19.45
74321;BMP280;62738;45.772;4.804;2023-03-23T11:07:25;99473.31;;;19.69
74321;BMP280;62738;45.772;4.804;2023-03-23T11:09:54;99474.63;;;19.50
74321;BMP280;62738;45.772;4.804;2023-03-23T11:12:20;99468.56;;;19.40
74321;BMP280;62738;45.772;4.804;2023-03-23T11:14:46;99478.59;;;19.29
74321;BMP280;62738;45.772;4.804;2023-03-23T11:17:25;99475.00;;;19.27
74321;BMP280;62738;45.772;4.804;2023-03-23T11:19:52;99466.56;;;19.11
74321;BMP280;62738;45.772;4.804;2023-03-23T11:22:29;99464.75;;;19.18
74321;BMP280;62738;45.772;4.804;2023-03-23T11:25:00;99452.84;;;19.04
74321;BMP280;62738;45.772;4.804;2023-03-23T11:27:27;99469.97;;;18.78
74321;BMP280;62738;45.772;4.804;2023-03-23T11:30:01;99461.97;;;18.73
74321;BMP280;62738;45.772;4.804;2023-03-23T11:32:34;99462.28;;;18.49
74321;BMP280;62738;45.772;4.804;2023-03-23T11:35:03;99473.94;;;18.73
74321;BMP280;62738;45.772;4.804;2023-03-23T11:37:41;99477.91;;;18.68
74321;BMP280;62738;45.772;4.804;2023-03-23T11:42:42;99474.19;;;18.64
74321;BMP280;62738;45.772;4.804;2023-03-23T11:50:50;99458.06;;;18.64
74321;BMP280;62738;45.772;4.804;2023-03-23T11:58:41;99440.03;;;18.40
74321;BMP280;62738;45.772;4.804;2023-03-23T12:09:52;99434.25;;;18.96
74321;BMP280;62738;45.772;4.804;2023-03-23T12:12:29;99434.44;;;19.00
74321;BMP280;62738;45.772;4.804;2023-03-23T12:15:15;99431.19;;;18.90
74321;BMP280;62738;45.772;4.804;2023-03-23T12:18:00;99428.88;;;19.34
74321;BMP280;62738;45.772;4.804;2023-03-23T12:23:33;99415.94;;;19.60
74321;BMP280;62738;45.772;4.804;2023-03-23T12:26:12;99415.94;;;19.76
74321;BMP280;62738;45.772;4.804;2023-03-23T12:48:18;99395.03;;;20.34
74321;BMP280;62738;45.772;4.804;2023-03-23T12:51:13;99400.19;;;20.22
74321;BMP280;62738;45.772;4.804;2023-03-23T12:53:58;99384.31;;;20.48
74321;BMP280;62738;45.772;4.804;2023-03-23T12:56:39;99380.50;;;20.59
74321;BMP280;62738;45.772;4.804;2023-03-23T13:01:56;99380.50;;;20.79
74321;BMP280;62738;45.772;4.804;2023-03-23T13:04:32;99365.97;;;20.86
74321;BMP280;62738;45.772;4.804;2023-03-23T13:07:06;99371.97;;;20.77
74321;BMP280;62738;45.772;4.804;2023-03-23T13:09:54;99370.31;;;20.70
74321;BMP280;62738;45.772;4.804;2023-03-23T13:12:22;99377.06;;;20.80
74321;BMP280;62738;45.772;4.804;2023-03-23T13:17:30;99359.09;;;21.11
74321;BMP280;62738;45.772;4.804;2023-03-23T13:25:02;99338.00;;;21.12
74321;BMP280;62738;45.772;4.804;2023-03-23T13:27:29;99324.25;;;20.83
74321;BMP280;62738;45.772;4.804;2023-03-23T13:29:56;99322.47;;;20.72
74321;BMP280;62738;45.772;4.804;2023-03-23T13:32:39;99322.47;;;20.91
74321;BMP280;62738;45.772;4.804;2023-03-23T13:35:12;99322.69;;;20.78
74321;BMP280;62738;45.772;4.804;2023-03-23T13:37:50;99326.56;;;20.49
74321;BMP280;62738;45.772;4.804;2023-03-23T13:40:28;99321.84;;;20.73
74321;BMP280;62738;45.772;4.804;2023-03-23T13:42:56;99322.91;;;21.04
74321;BMP280;62738;45.772;4.804;2023-03-23T13:48:39;99313.38;;;20.93
74321;BMP280;62738;45.772;4.804;2023-03-23T13:51:24;99306.97;;;21.12
74321;BMP280;62738;45.772;4.804;2023-03-23T13:53:50;99309.28;;;21.18
74321;BMP280;62738;45.772;4.804;2023-03-23T13:56:40;99297.06;;;21.11
74321;BMP280;62738;45.772;4.804;2023-03-23T13:59:15;99294.41;;;20.76
74321;BMP280;62738;45.772;4.804;2023-03-23T14:01:42;99295.72;;;20.92
74321;BMP280;62738;45.772;4.804;2023-03-23T14:04:14;99289.59;;;20.98
74321;BMP280;62738;45.772;4.804;2023-03-23T14:06:41;99289.41;;;21.14
74321;BMP280;62738;45.772;4.804;2023-03-23T14:09:18;99282.53;;;21.19
74321;BMP280;62738;45.772;4.804;2023-03-23T14:11:55;99290.31;;;21.20
74321;BMP280;62738;45.772;4.804;2023-03-23T14:14:30;99275.94;;;21.12
74321;BMP280;62738;45.772;4.804;2023-03-23T14:17:12;99273.59;;;20.85
74321;BMP280;62738;45.772;4.804;2023-03-23T14:19:40;99273.34;;;21.18
74321;BMP280;62738;45.772;4.804;2023-03-23T14:22:19;99257.59;;;21.33
74321;BMP280;62738;45.772;4.804;2023-03-23T14:24:47;99263.94;;;21.55
74321;BMP280;62738;45.772;4.804;2023-03-23T14:27:20;99254.66;;;21.74
74321;BMP280;62738;45.772;4.804;2023-03-23T14:29:46;99245.16;;;21.87
74321;BMP280;62738;45.772;4.804;2023-03-23T14:32:23;99243.97;;;21.71
74321;BMP280;62738;45.772;4.804;2023-03-23T14:34:51;99236.06;;;21.67
74321;BMP280;62738;45.772;4.804;2023-03-23T14:37:17;99241.34;;;21.55
74321;BMP280;62738;45.772;4.804;2023-03-23T14:39:46;99239.09;;;21.73
74321;BMP280;62738;45.772;4.804;2023-03-23T14:42:14;99243.28;;;21.72
74321;BMP280;62738;45.772;4.804;2023-03-23T14:44:47;99238.88;;;21.89
74321;BMP280;62738;45.772;4.804;2023-03-23T14:47:18;99236.66;;;21.85
74321;BMP280;62738;45.772;4.804;2023-03-23T14:49:45;99229.00;;;21.66
74321;BMP280;62738;45.772;4.804;2023-03-23T14:52:16;99236.91;;;21.48
74321;BMP280;62738;45.772;4.804;2023-03-23T14:54:44;99227.47;;;21.18
74321;BMP280;62738;45.772;4.804;2023-03-23T14:57:18;99217.03;;;21.01
74321;BMP280;62738;45.772;4.804;2023-03-23T14:59:46;99223.59;;;20.85
74321;BMP280;62738;45.772;4.804;2023-03-23T15:02:34;99224.22;;;20.84
74321;BMP280;62738;45.772;4.804;2023-03-23T15:05:14;99220.75;;;20.85
74321;BMP280;62738;45.772;4.804;2023-03-23T15:07:42;99212.47;;;20.70
74321;BMP280;62738;45.772;4.804;2023-03-23T15:10:15;99219.97;;;21.05
74321;BMP280;62738;45.772;4.804;2023-03-23T15:12:44;99215.66;;;21.23
74321;BMP280;62738;45.772;4.804;2023-03-23T15:15:22;99215.78;;;21.49
74321;BMP280;62738;45.772;4.804;2023-03-23T15:17:49;99211.28;;;21.64
74321;BMP280;62738;45.772;4.804;2023-03-23T15:20:48;99206.53;;;21.70
74321;BMP280;62738;45.772;4.804;2023-03-23T15:23:30;99205.13;;;21.71
74321;BMP280;62738;45.772;4.804;2023-03-23T15:25:57;99209.88;;;21.41
74321;BMP280;62738;45.772;4.804;2023-03-23T15:28:32;99209.53;;;21.53
74321;BMP280;62738;45.772;4.804;2023-03-23T15:31:05;99198.72;;;21.45
74321;BMP280;62738;45.772;4.804;2023-03-23T15:33:36;99188.66;;;21.40
74321;BMP280;62738;45.772;4.804;2023-03-23T15:36:07;99201.75;;;21.51
74321;BMP280;62738;45.772;4.804;2023-03-23T15:38:34;99192.19;;;21.62
74321;BMP280;62738;45.772;4.804;2023-03-23T15:41:04;99188.53;;;21.81
74321;BMP280;62738;45.772;4.804;2023-03-23T15:43:35;99198.38;;;21.80
74321;BMP280;62738;45.772;4.804;2023-03-23T15:46:04;99196.44;;;21.87
74321;BMP280;62738;45.772;4.804;2023-03-23T15:51:28;99194.09;;;21.79